createdAt,value
2023-04-05T00:01:39.145Z,85.57
2023-04-05T00:04:05.946Z,86.54
2023-04-05T00:06:32.561Z,86.70
2023-04-05T00:09:00.028Z,87.76
2023-04-05T00:11:27.534Z,87.25
2023-04-05T00:13:54.083Z,87.43
2023-04-05T00:16:20.892Z,87.08
2023-04-05T00:18:51.569Z,86.83
2023-04-05T00:21:21.939Z,87.50
2023-04-05T00:23:52.914Z,87.77
2023-04-05T00:26:19.958Z,87.34
2023-04-05T00:28:47.381Z,86.86
2023-04-05T00:31:13.900Z,87.42
2023-04-05T00:33:40.978Z,86.95
2023-04-05T00:36:11.446Z,86.77
2023-04-05T00:38:38.586Z,86.78
2023-04-05T00:41:05.134Z,87.01
2023-04-05T00:43:31.734Z,86.78
2023-04-05T00:45:58.458Z,86.66
2023-04-05T00:48:25.470Z,86.94
2023-04-05T00:50:52.435Z,87.24
2023-04-05T00:53:19.576Z,86.94
2023-04-05T00:55:49.955Z,87.41
2023-04-05T00:58:19.323Z,87.41
2023-04-05T01:00:53.334Z,87.58
2023-04-05T01:03:21.043Z,87.68
2023-04-05T01:05:49.624Z,87.71
2023-04-05T01:08:17.762Z,87.68
2023-04-05T01:10:51.398Z,87.55
2023-04-05T01:13:17.960Z,87.88
2023-04-05T01:15:44.619Z,87.94
2023-04-05T01:18:11.941Z,88.12
2023-04-05T01:20:43.099Z,88.18
2023-04-05T01:23:25.290Z,87.93
2023-04-05T01:26:09.903Z,88.05
2023-04-05T01:28:57.733Z,88.54
2023-04-05T01:31:27.422Z,88.50
2023-04-05T01:33:54.005Z,88.34
2023-04-05T01:36:20.637Z,88.41
2023-04-05T01:38:49.148Z,88.33
2023-04-05T01:41:15.913Z,88.66
2023-04-05T01:43:42.563Z,88.75
2023-04-05T01:46:09.105Z,88.80
2023-04-05T01:48:35.731Z,88.83
2023-04-05T01:51:02.299Z,88.87
2023-04-05T01:53:28.792Z,88.79
2023-04-05T01:55:59.718Z,89.05
2023-04-05T01:58:26.286Z,89.41
2023-04-05T02:00:58.733Z,89.31
2023-04-05T02:03:25.481Z,89.47
2023-04-05T02:05:52.191Z,89.64
2023-04-05T02:08:18.812Z,89.42
2023-04-05T02:10:45.868Z,89.36
2023-04-05T02:13:13.865Z,89.61
2023-04-05T02:15:40.647Z,89.59
2023-04-05T02:18:08.116Z,91.66
2023-04-05T02:20:34.819Z,90.55
2023-04-05T02:23:02.022Z,90.53
2023-04-05T02:25:28.611Z,90.56
2023-04-05T02:27:55.173Z,90.51
2023-04-05T02:30:21.722Z,91.37
2023-04-05T02:32:48.381Z,92.09
2023-04-05T02:35:17.357Z,92.00
2023-04-05T02:37:44.089Z,91.88
2023-04-05T02:40:13.609Z,91.99
2023-04-05T02:42:40.297Z,91.87
2023-04-05T02:45:08.486Z,92.08
2023-04-05T02:47:35.083Z,91.99
2023-04-05T02:50:01.657Z,92.29
2023-04-05T02:52:29.294Z,91.96
2023-04-05T02:54:55.835Z,93.04
2023-04-05T02:57:22.434Z,93.35
2023-04-05T02:59:49.039Z,92.74
2023-04-05T03:02:16.261Z,92.51
2023-04-05T03:04:44.963Z,92.42
2023-04-05T03:07:14.491Z,92.67
2023-04-05T03:09:41.073Z,92.32
2023-04-05T03:12:07.679Z,92.65
2023-04-05T03:14:34.490Z,92.78
2023-04-05T03:17:01.301Z,92.95
2023-04-05T03:19:27.852Z,92.90
2023-04-05T03:21:54.463Z,92.98
2023-04-05T03:24:21.405Z,92.78
2023-04-05T03:26:48.914Z,93.35
2023-04-05T03:29:16.763Z,93.58
2023-04-05T03:31:43.548Z,93.72
2023-04-05T03:34:10.103Z,93.85
2023-04-05T03:36:42.922Z,93.51
2023-04-05T03:39:10.453Z,93.33
2023-04-05T03:41:37.575Z,93.46
2023-04-05T03:44:04.289Z,94.05
2023-04-05T03:46:30.961Z,94.19
2023-04-05T03:48:58.022Z,93.77
2023-04-05T03:51:24.945Z,93.81
2023-04-05T03:53:51.488Z,93.98
2023-04-05T03:56:18.059Z,94.27
2023-04-05T03:58:44.906Z,94.86
2023-04-05T04:01:12.306Z,94.51
2023-04-05T04:03:39.166Z,95.11
2023-04-05T04:06:06.641Z,94.52
2023-04-05T04:08:33.788Z,94.61
2023-04-05T04:11:00.421Z,94.55
2023-04-05T04:13:26.974Z,94.66
2023-04-05T04:15:53.580Z,95.09
2023-04-05T04:18:20.351Z,94.84
2023-04-05T04:20:47.847Z,94.48
2023-04-05T04:23:14.545Z,94.15
2023-04-05T04:25:46.090Z,94.34
2023-04-05T04:28:16.809Z,94.33
2023-04-05T04:30:43.568Z,94.10
2023-04-05T04:33:10.264Z,94.33
2023-04-05T04:35:42.769Z,94.29
2023-04-05T04:38:09.528Z,93.88
2023-04-05T04:40:40.041Z,93.87
2023-04-05T04:43:06.643Z,93.70
2023-04-05T04:45:38.100Z,93.69
2023-04-05T04:48:05.224Z,93.65
2023-04-05T04:50:32.390Z,93.62
2023-04-05T04:52:59.315Z,93.37
2023-04-05T04:55:26.241Z,93.50
2023-04-05T04:57:53.646Z,93.59
2023-04-05T05:00:20.716Z,93.63
2023-04-05T05:02:47.529Z,92.94
2023-04-05T05:05:14.164Z,92.88
2023-04-05T05:07:44.391Z,92.83
2023-04-05T05:10:11.575Z,92.75
2023-04-05T05:12:39.229Z,92.68
2023-04-05T05:15:06.068Z,92.48
2023-04-05T05:17:32.677Z,92.47
2023-04-05T05:20:00.473Z,92.30
2023-04-05T05:22:27.458Z,92.21
2023-04-05T05:24:54.247Z,92.10
2023-04-05T05:27:22.230Z,92.11
2023-04-05T05:29:48.905Z,91.85
2023-04-05T05:32:17.076Z,91.39
2023-04-05T05:34:45.074Z,91.32
2023-04-05T05:37:12.598Z,91.41
2023-04-05T05:39:39.294Z,91.23
2023-04-05T05:42:06.378Z,91.11
2023-04-05T05:44:32.946Z,90.96
2023-04-05T05:46:59.535Z,90.69
2023-04-05T05:49:26.205Z,90.68
2023-04-05T05:51:52.943Z,90.40
2023-04-05T05:54:19.864Z,90.20
2023-04-05T05:56:46.435Z,90.15
2023-04-05T05:59:13.094Z,89.95
2023-04-05T06:01:42.883Z,89.83
2023-04-05T06:04:09.854Z,89.85
2023-04-05T06:06:37.895Z,89.79
2023-04-05T06:09:04.596Z,89.62
2023-04-05T06:11:31.162Z,89.14
2023-04-05T06:13:57.889Z,88.53
2023-04-05T06:16:24.479Z,88.08
2023-04-05T06:18:51.217Z,88.50
2023-04-05T06:21:17.788Z,88.43
2023-04-05T06:23:44.427Z,88.31
2023-04-05T06:26:21.716Z,88.13
2023-04-05T06:28:48.444Z,87.96
2023-04-05T06:31:20.790Z,87.88
2023-04-05T06:33:47.341Z,87.67
2023-04-05T06:36:13.953Z,87.56
2023-04-05T06:38:40.532Z,87.05
2023-04-05T06:41:07.064Z,86.57
2023-04-05T06:43:33.692Z,86.54
2023-04-05T06:46:00.715Z,86.68
2023-04-05T06:48:29.309Z,86.67
2023-04-05T06:51:02.929Z,86.74
2023-04-05T06:53:29.561Z,86.42
2023-04-05T06:55:56.863Z,86.48
2023-04-05T06:58:23.967Z,86.38
2023-04-05T07:00:51.073Z,85.97
2023-04-05T07:03:18.478Z,85.81
2023-04-05T07:05:54.997Z,85.79
2023-04-05T07:08:21.512Z,85.67
2023-04-05T07:10:48.420Z,85.47
2023-04-05T07:13:14.978Z,84.86
2023-04-05T07:15:41.870Z,84.57
2023-04-05T07:18:08.861Z,84.05
2023-04-05T07:20:35.476Z,84.03
2023-04-05T07:23:02.422Z,82.58
2023-04-05T07:25:28.971Z,82.14
2023-04-05T07:27:55.518Z,83.21
2023-04-05T07:30:22.047Z,83.36
2023-04-05T07:32:48.637Z,83.33
2023-04-05T07:35:15.457Z,83.21
2023-04-05T07:37:42.051Z,82.98
2023-04-05T07:40:11.349Z,82.72
2023-04-05T07:42:38.886Z,81.57
2023-04-05T07:45:05.803Z,82.01
2023-04-05T07:47:35.663Z,82.16
2023-04-05T07:50:02.514Z,81.11
2023-04-05T07:52:30.517Z,80.94
2023-04-05T07:54:57.070Z,81.54
2023-04-05T07:57:23.769Z,81.77
2023-04-05T07:59:54.835Z,81.22
2023-04-05T08:02:21.404Z,81.23
2023-04-05T08:04:48.060Z,80.18
2023-04-05T08:07:14.702Z,80.47
2023-04-05T08:09:41.411Z,80.97
2023-04-05T08:12:08.095Z,78.46
2023-04-05T08:14:34.604Z,75.82
2023-04-05T08:17:01.259Z,77.54
2023-04-05T08:19:27.970Z,77.91
2023-04-05T08:21:54.517Z,77.20
2023-04-05T08:24:21.163Z,76.83
2023-04-05T08:26:47.744Z,76.70
2023-04-05T08:29:14.258Z,77.18
2023-04-05T08:31:40.877Z,74.83
2023-04-05T08:34:08.552Z,76.50
2023-04-05T08:36:35.118Z,76.76
2023-04-05T08:39:01.694Z,76.06
2023-04-05T08:41:35.321Z,76.37
2023-04-05T08:44:03.103Z,76.40
2023-04-05T08:46:34.427Z,75.08
2023-04-05T08:49:04.962Z,71.15
2023-04-05T08:51:31.759Z,72.58
2023-04-05T08:53:59.404Z,73.32
2023-04-05T08:56:27.789Z,74.18
2023-04-05T08:59:05.265Z,72.63
2023-04-05T09:01:33.587Z,72.77
2023-04-05T09:04:01.805Z,73.56
2023-04-05T09:06:28.836Z,72.50
2023-04-05T09:08:58.735Z,73.47
2023-04-05T09:11:25.750Z,73.26
2023-04-05T09:13:52.406Z,70.63
2023-04-05T09:16:19.728Z,70.68
2023-04-05T09:18:46.339Z,72.08
2023-04-05T09:21:13.013Z,72.57
2023-04-05T09:23:50.895Z,72.08
2023-04-05T09:26:18.361Z,71.55
2023-04-05T09:28:44.912Z,68.93
2023-04-05T09:31:29.237Z,70.52
2023-04-05T09:33:57.764Z,70.64
2023-04-05T09:36:24.378Z,71.41
2023-04-05T09:38:51.258Z,71.59
2023-04-05T09:41:17.813Z,71.69
2023-04-05T09:43:44.392Z,70.49
2023-04-05T09:46:30.259Z,70.16
2023-04-05T09:48:57.428Z,70.07
2023-04-05T09:51:23.997Z,70.52
2023-04-05T09:54:01.847Z,70.63
2023-04-05T09:56:29.338Z,70.05
2023-04-05T09:59:01.472Z,70.49
2023-04-05T10:01:29.089Z,69.04
2023-04-05T10:03:57.409Z,68.76
2023-04-05T10:06:24.275Z,68.24
2023-04-05T10:08:51.592Z,69.27
2023-04-05T10:11:18.469Z,67.66
2023-04-05T10:13:45.487Z,68.14
2023-04-05T10:16:14.278Z,68.78
2023-04-05T10:18:46.528Z,67.95
2023-04-05T10:21:15.713Z,65.53
2023-04-05T10:23:44.769Z,66.83
2023-04-05T10:26:18.795Z,66.82
2023-04-05T10:28:47.930Z,64.28
2023-04-05T10:31:21.090Z,63.48
2023-04-05T10:34:16.507Z,62.02
2023-04-05T10:36:50.652Z,51.87
2023-04-05T10:39:22.113Z,58.20
2023-04-05T10:41:49.384Z,60.93
2023-04-05T10:44:25.827Z,59.84
2023-04-05T10:46:53.694Z,59.18
2023-04-05T10:49:20.192Z,57.73
2023-04-05T10:51:48.079Z,56.77
2023-04-05T10:54:17.218Z,53.66
2023-04-05T10:56:44.215Z,53.42
2023-04-05T10:59:12.331Z,52.65
2023-04-05T11:01:40.600Z,54.89
2023-04-05T11:04:14.467Z,50.16
2023-04-05T11:06:41.525Z,53.79
2023-04-05T11:09:10.940Z,52.81
2023-04-05T11:11:41.284Z,52.30
2023-04-05T11:14:46.574Z,50.16
2023-04-05T11:17:28.862Z,48.81
2023-04-05T11:20:02.953Z,46.97
2023-04-05T11:22:30.088Z,41.38
2023-04-05T11:24:58.115Z,44.97
2023-04-05T11:27:29.226Z,45.45
2023-04-05T11:29:56.510Z,44.57
2023-04-05T11:32:23.532Z,42.76
2023-04-05T11:35:00.319Z,42.07
2023-04-05T11:37:45.700Z,45.64
2023-04-05T11:40:26.001Z,44.90
2023-04-05T11:42:59.385Z,46.09
2023-04-05T11:45:26.419Z,44.18
2023-04-05T11:47:53.078Z,41.97
2023-04-05T11:50:20.642Z,44.44
2023-04-05T11:53:07.122Z,43.41
2023-04-05T11:55:33.697Z,43.82
2023-04-05T11:58:00.573Z,43.34
2023-04-05T12:00:27.129Z,41.90
2023-04-05T12:02:57.236Z,42.87
2023-04-05T12:05:23.890Z,40.93
2023-04-05T12:07:56.579Z,36.23
2023-04-05T12:10:23.148Z,37.02
2023-04-05T12:12:49.762Z,35.86
2023-04-05T12:15:19.038Z,38.85
2023-04-05T12:17:50.285Z,39.75
2023-04-05T12:20:19.503Z,40.26
2023-04-05T12:22:48.721Z,39.50
2023-04-05T12:25:16.502Z,38.14
2023-04-05T12:27:43.190Z,36.90
2023-04-05T12:30:23.417Z,40.55
2023-04-05T12:32:54.194Z,38.11
2023-04-05T12:35:21.984Z,40.74
2023-04-05T12:37:50.766Z,40.61
2023-04-05T12:40:22.030Z,39.94
2023-04-05T12:42:48.877Z,40.34
2023-04-05T12:45:15.623Z,40.47
2023-04-05T12:47:58.671Z,40.36
2023-04-05T12:50:27.642Z,36.15
2023-04-05T12:52:54.853Z,39.10
2023-04-05T12:55:21.658Z,37.72
2023-04-05T12:57:52.279Z,39.77
2023-04-05T13:00:19.414Z,40.25
2023-04-05T13:02:48.883Z,38.02
2023-04-05T13:05:15.558Z,37.77
2023-04-05T13:07:42.125Z,39.45
2023-04-05T13:10:09.027Z,37.68
2023-04-05T13:12:35.571Z,38.89
2023-04-05T13:15:02.284Z,38.61
2023-04-05T13:17:29.151Z,35.86
2023-04-05T13:19:55.876Z,34.23
2023-04-05T13:22:22.743Z,37.27
2023-04-05T13:24:49.343Z,38.67
2023-04-05T13:27:15.951Z,37.72
2023-04-05T13:29:42.552Z,34.89
2023-04-05T13:32:09.111Z,36.81
2023-04-05T13:34:35.662Z,37.05
2023-04-05T13:37:02.290Z,37.58
2023-04-05T13:39:28.904Z,37.72
2023-04-05T13:41:57.263Z,36.26
2023-04-05T13:44:24.028Z,36.73
2023-04-05T13:46:50.980Z,37.02
2023-04-05T13:49:17.581Z,36.31
2023-04-05T13:51:44.151Z,38.00
2023-04-05T13:54:14.041Z,38.18
2023-04-05T13:56:40.658Z,37.66
2023-04-05T13:59:07.562Z,37.67
2023-04-05T14:01:34.387Z,36.57
2023-04-05T14:04:01.171Z,37.43
2023-04-05T14:06:28.169Z,37.56
2023-04-05T14:08:55.392Z,37.40
2023-04-05T14:11:22.806Z,37.43
2023-04-05T14:13:50.042Z,36.80
2023-04-05T14:16:16.783Z,37.61
2023-04-05T14:18:43.428Z,37.24
2023-04-05T14:21:10.592Z,36.79
2023-04-05T14:23:37.266Z,37.28
2023-04-05T14:26:03.977Z,37.63
2023-04-05T14:28:30.610Z,37.70
2023-04-05T14:30:58.913Z,38.07
2023-04-05T14:33:27.141Z,37.77
2023-04-05T14:35:53.915Z,38.41
2023-04-05T14:38:20.682Z,38.64
2023-04-05T14:40:47.310Z,38.35
2023-04-05T14:43:13.896Z,38.78
2023-04-05T14:45:40.799Z,39.66
2023-04-05T14:48:07.471Z,39.08
2023-04-05T14:50:34.212Z,40.86
2023-04-05T14:53:01.609Z,41.43
2023-04-05T14:55:28.676Z,41.78
2023-04-05T14:57:55.403Z,42.38
2023-04-05T15:00:22.063Z,42.24
2023-04-05T15:02:48.827Z,42.51
2023-04-05T15:05:15.650Z,43.06
2023-04-05T15:07:42.258Z,43.19
2023-04-05T15:10:09.208Z,43.75
2023-04-05T15:12:35.914Z,43.80
2023-04-05T15:15:02.555Z,44.43
2023-04-05T15:17:29.996Z,44.15
2023-04-05T15:19:56.714Z,44.42
2023-04-05T15:22:23.544Z,45.81
2023-04-05T15:24:50.239Z,45.40
2023-04-05T15:27:16.869Z,46.04
2023-04-05T15:29:43.485Z,46.22
2023-04-05T15:32:10.298Z,46.73
2023-04-05T15:34:36.895Z,47.29
2023-04-05T15:37:03.512Z,47.44
2023-04-05T15:39:30.370Z,47.39
2023-04-05T15:41:57.901Z,47.83
2023-04-05T15:44:24.561Z,48.91
2023-04-05T15:46:51.279Z,49.71
2023-04-05T15:49:17.974Z,49.04
2023-04-05T15:51:44.948Z,49.58
2023-04-05T15:54:16.644Z,49.53
2023-04-05T15:56:43.229Z,50.59
2023-04-05T15:59:10.060Z,51.13
2023-04-05T16:01:40.100Z,51.05
2023-04-05T16:04:06.951Z,51.36
2023-04-05T16:06:33.574Z,51.39
2023-04-05T16:09:00.937Z,51.90
2023-04-05T16:11:27.827Z,53.25
2023-04-05T16:13:54.489Z,53.39
2023-04-05T16:16:32.574Z,54.38
2023-04-05T16:19:05.368Z,53.24
2023-04-05T16:21:32.086Z,53.12
2023-04-05T16:24:01.141Z,52.95
2023-04-05T16:26:27.828Z,53.92
2023-04-05T16:28:54.744Z,55.46
2023-04-05T16:31:21.743Z,54.97
2023-04-05T16:33:48.449Z,55.61
2023-04-05T16:36:15.166Z,55.31
2023-04-05T16:38:43.505Z,56.83
2023-04-05T16:41:11.153Z,56.33
2023-04-05T16:43:37.824Z,56.66
2023-04-05T16:46:04.529Z,56.78
2023-04-05T16:48:32.605Z,57.65
2023-04-05T16:50:59.200Z,58.70
2023-04-05T16:53:25.783Z,57.98
2023-04-05T16:55:52.347Z,57.85
2023-04-05T16:58:18.987Z,57.81
2023-04-05T17:00:45.571Z,60.19
2023-04-05T17:03:12.317Z,58.78
2023-04-05T17:05:38.978Z,59.19
2023-04-05T17:08:05.645Z,58.97
2023-04-05T17:10:32.239Z,59.05
2023-04-05T17:12:58.868Z,59.62
2023-04-05T17:15:26.312Z,60.49
2023-04-05T17:17:53.037Z,59.82
2023-04-05T17:20:19.727Z,60.65
2023-04-05T17:22:46.295Z,60.80
2023-04-05T17:25:12.902Z,60.97
2023-04-05T17:27:39.478Z,61.48
2023-04-05T17:30:06.452Z,61.30
2023-04-05T17:32:34.799Z,62.82
2023-04-05T17:35:01.794Z,61.28
2023-04-05T17:37:29.511Z,61.57
2023-04-05T17:39:56.254Z,61.39
2023-04-05T17:42:22.841Z,62.33
2023-04-05T17:44:49.548Z,62.12
2023-04-05T17:47:16.346Z,61.63
2023-04-05T17:49:43.099Z,61.61
2023-04-05T17:52:09.807Z,61.53
2023-04-05T17:54:39.466Z,61.48
2023-04-05T17:57:06.517Z,61.60
2023-04-05T17:59:33.229Z,61.50
2023-04-05T18:02:00.212Z,61.75
2023-04-05T18:04:27.260Z,61.59
2023-04-05T18:06:53.885Z,61.73
2023-04-05T18:09:20.778Z,61.72
2023-04-05T18:11:47.454Z,61.82
2023-04-05T18:14:14.109Z,61.76
2023-04-05T18:16:40.762Z,62.10
2023-04-05T18:19:07.771Z,61.75
2023-04-05T18:21:34.492Z,61.80
2023-04-05T18:24:01.308Z,61.77
2023-04-05T18:26:28.642Z,61.76
2023-04-05T18:28:59.813Z,61.79
2023-04-05T18:31:27.189Z,62.03
2023-04-05T18:33:54.003Z,62.01
2023-04-05T18:36:20.761Z,62.05
2023-04-05T18:38:47.600Z,62.14
2023-04-05T18:41:15.261Z,62.23
2023-04-05T18:43:42.113Z,62.14
2023-04-05T18:46:08.876Z,62.38
2023-04-05T18:48:38.818Z,62.34
2023-04-05T18:51:06.187Z,63.18
2023-04-05T18:53:32.931Z,62.66
2023-04-05T18:55:59.536Z,62.73
2023-04-05T18:58:26.181Z,62.31
2023-04-05T19:00:52.864Z,62.48
2023-04-05T19:03:19.801Z,62.47
2023-04-05T19:05:53.555Z,62.39
2023-04-05T19:08:20.302Z,62.65
2023-04-05T19:10:46.919Z,62.61
2023-04-05T19:13:13.524Z,62.82
2023-04-05T19:15:40.276Z,63.70
2023-04-05T19:18:06.908Z,63.30
2023-04-05T19:20:33.554Z,63.08
2023-04-05T19:23:00.271Z,63.28
2023-04-05T19:25:27.391Z,63.16
2023-04-05T19:27:55.107Z,64.33
2023-04-05T19:30:21.806Z,63.53
2023-04-05T19:32:49.104Z,63.55
2023-04-05T19:35:16.239Z,63.41
2023-04-05T19:37:42.858Z,63.52
2023-04-05T19:40:09.991Z,63.70
2023-04-05T19:42:36.686Z,63.70
2023-04-05T19:45:07.565Z,63.98
2023-04-05T19:47:35.584Z,63.81
2023-04-05T19:50:02.303Z,63.85
2023-04-05T19:52:47.706Z,64.13
2023-04-05T19:55:32.986Z,64.35
2023-04-05T19:58:00.927Z,64.43
2023-04-05T20:00:35.777Z,64.57
2023-04-05T20:03:02.855Z,64.58
2023-04-05T20:05:55.605Z,64.69
2023-04-05T20:08:22.188Z,65.02
2023-04-05T20:10:52.106Z,64.85
2023-04-05T20:13:19.630Z,65.10
2023-04-05T20:15:47.218Z,65.11
2023-04-05T20:18:18.424Z,65.41
2023-04-05T20:20:45.779Z,65.41
2023-04-05T20:23:12.420Z,65.62
2023-04-05T20:25:42.774Z,65.76
2023-04-05T20:28:26.791Z,67.47
2023-04-05T20:30:53.905Z,66.45
2023-04-05T20:33:34.325Z,65.97
2023-04-05T20:36:01.199Z,66.07
2023-04-05T20:38:27.833Z,66.27
2023-04-05T20:40:54.380Z,67.61
2023-04-05T20:43:21.052Z,66.77
2023-04-05T20:45:47.841Z,66.72
2023-04-05T20:48:14.502Z,67.11
2023-04-05T20:50:41.257Z,67.24
2023-04-05T20:53:07.838Z,67.02
2023-04-05T20:55:34.407Z,67.09
2023-04-05T20:58:01.049Z,67.38
2023-04-05T21:00:29.556Z,67.47
2023-04-05T21:02:56.448Z,67.49
2023-04-05T21:05:23.081Z,67.63
2023-04-05T21:07:49.740Z,67.59
2023-04-05T21:10:16.349Z,67.97
2023-04-05T21:12:42.890Z,68.18
2023-04-05T21:15:09.784Z,68.47
2023-04-05T21:17:36.653Z,68.54
2023-04-05T21:20:03.365Z,68.42
2023-04-05T21:22:30.213Z,68.85
2023-04-05T21:24:56.775Z,68.67
2023-04-05T21:27:24.157Z,68.95
2023-04-05T21:29:50.735Z,69.13
2023-04-05T21:32:17.286Z,70.20
2023-04-05T21:34:43.851Z,69.60
2023-04-05T21:37:10.685Z,69.68
2023-04-05T21:39:37.248Z,69.79
2023-04-05T21:42:03.910Z,69.75
2023-04-05T21:44:30.473Z,70.05
2023-04-05T21:46:57.706Z,69.76
2023-04-05T21:49:24.321Z,70.28
2023-04-05T21:51:50.974Z,70.29
2023-04-05T21:54:17.519Z,70.82
2023-04-05T21:56:44.156Z,70.52
2023-04-05T21:59:11.020Z,71.03
2023-04-05T22:01:37.826Z,71.23
2023-04-05T22:04:04.462Z,71.30
2023-04-05T22:06:31.067Z,70.99
2023-04-05T22:08:57.620Z,71.01
2023-04-05T22:11:25.062Z,71.26
2023-04-05T22:13:51.981Z,71.24
2023-04-05T22:16:18.603Z,71.30
2023-04-05T22:18:46.251Z,71.41
2023-04-05T22:21:12.895Z,71.81
2023-04-05T22:23:41.747Z,71.76
2023-04-05T22:26:09.386Z,72.04
2023-04-05T22:28:36.044Z,71.81
2023-04-05T22:31:02.630Z,72.11
2023-04-05T22:33:29.229Z,72.32
2023-04-05T22:35:56.153Z,72.19
2023-04-05T22:38:22.763Z,72.29
2023-04-05T22:40:49.386Z,72.71
2023-04-05T22:43:16.145Z,72.48
2023-04-05T22:45:42.895Z,72.87
2023-04-05T22:48:09.595Z,72.20
2023-04-05T22:50:36.260Z,72.48
2023-04-05T22:53:02.792Z,72.31
2023-04-05T22:55:29.541Z,72.43
2023-04-05T22:57:56.145Z,72.73
2023-04-05T23:00:22.755Z,72.69
2023-04-05T23:02:49.448Z,72.52
2023-04-05T23:05:16.039Z,72.55
2023-04-05T23:07:42.700Z,72.83
2023-04-05T23:10:09.656Z,72.56
2023-04-05T23:12:36.229Z,72.70
2023-04-05T23:15:02.869Z,72.59
2023-04-05T23:17:29.764Z,72.63
2023-04-05T23:19:56.449Z,72.52
2023-04-05T23:22:23.075Z,72.71
2023-04-05T23:24:49.662Z,72.86
2023-04-05T23:27:16.315Z,72.99
2023-04-05T23:29:42.897Z,73.09
2023-04-05T23:32:12.822Z,73.28
2023-04-05T23:34:39.585Z,73.10
2023-04-05T23:37:06.132Z,73.34
2023-04-05T23:39:32.756Z,73.40
2023-04-05T23:41:59.315Z,73.01
2023-04-05T23:44:25.905Z,73.02
2023-04-05T23:46:52.645Z,73.11
2023-04-05T23:49:21.092Z,73.37
2023-04-05T23:51:47.654Z,73.10
2023-04-05T23:54:14.186Z,73.59
2023-04-05T23:56:41.144Z,73.72
2023-04-05T23:59:08.135Z,73.46
